Flight Track Log - Related Links

Times and Time Zones

All times are in EST time to prevent confusion due to time zone crossing. See the UPS1125 flight status page for this flight to view local times or setup timezone preferences in your user account.

Time Position Orientation Groundspeed Altitude Reporting Facility
EST Latitude Longitude Course Direction KTS MPH feet Rate Location/Type
Thu 10:36:04 PM 40.6500 -73.8500 242° Southwest 173 199 3,000  Level New York TRACON
Thu 10:37:04 PM 40.5833 -73.8833 201° Southwest 260 299 6,300 3,350 Climbing New York TRACON
Thu 10:38:04 PM 40.5667 -73.8000 105° East 308 354 9,700 2,789 Climbing New York TRACON
Thu 10:38:58 PM 40.5833 -73.6833 79° East 358 412 11,600 1,895 Climbing New York TRACON
Thu 10:39:58 PM 40.6667 -73.6000 37° Northeast 407 468 13,300 1,777 Climbing New York TRACON
Thu 10:41:00 PM 40.7637 -74.5157 242° Southwest  Level Estimated
Thu 10:41:57 PM 40.8914 -73.6450 351° North 436 502 16,900  Level New York Center
Thu 10:42:57 PM 40.9836 -73.7011 335° Northwest 414 476 17,900 1,450 Climbing New York Center
Thu 10:43:57 PM 41.0881 -73.7692 334° Northwest 409 471 19,800 1,950 Climbing New York Center
Thu 10:44:57 PM 41.1328 -73.8922 296° West 371 427 21,800 1,500 Climbing New York Center
Thu 10:45:57 PM 41.1333 -74.0328 270° West 357 411 22,800 1,400 Climbing New York Center
Thu 10:46:57 PM 41.1106 -74.1750 258° West 368 423 24,600 2,150 Climbing New York Center
Thu 10:47:57 PM 41.0811 -74.3247 255° West 375 432 27,100 2,850 Climbing New York Center
Thu 10:48:57 PM 41.0581 -74.4611 257° West 380 437 30,300 2,450 Climbing New York Center
Thu 10:49:57 PM 41.0372 -74.5947 258° West 385 443 32,000 850 Climbing New York Center
Thu 10:50:57 PM 41.0139 -74.7336 257° West 385 443 32,000  Level New York Center
Thu 10:51:57 PM 40.9883 -74.8725 256° West 385 443 32,000  Level New York Center
Thu 10:52:57 PM 40.9606 -75.0081 255° West 390 449 32,000  Level New York Center
Thu 10:53:57 PM 40.9222 -75.1431 249° West 390 449 32,000  Level New York Center
Thu 10:54:57 PM 40.8942 -75.2811 255° West 397 457 32,000  Level New York Center
Thu 10:55:57 PM 40.9014 -75.4217 274° West 374 430 32,000  Level New York Center
Thu 10:56:57 PM 40.9164 -75.5628 278° West 386 444 32,000  Level New York Center
Thu 10:57:57 PM 40.9314 -75.7039 278° West 396 456 32,000  Level New York Center
Thu 10:58:57 PM 40.9464 -75.8478 278° West 396 456 32,000  Level New York Center
Thu 10:59:57 PM 40.9608 -75.9919 278° West 396 456 32,000  Level New York Center
Thu 11:00:57 PM 40.9733 -76.1303 277° West 391 450 32,000  Level New York Center
Thu 11:01:57 PM 40.9875 -76.2744 277° West 391 450 32,000  Level New York Center
Thu 11:02:57 PM 41.0019 -76.4131 278° West 391 450 32,000  Level New York Center
Thu 11:03:57 PM 41.0158 -76.5572 277° West 391 450 32,000  Level New York Center
Thu 11:04:57 PM 41.0297 -76.6958 278° West 391 450 32,000  Level New York Center
Thu 11:05:57 PM 41.0433 -76.8403 277° West 391 450 32,000  Level New York Center
Thu 11:06:57 PM 41.0519 -76.9539 276° West 391 450 32,000  Level New York Center
Thu 11:07:57 PM 41.0669 -77.1067 277° West 391 450 32,000  Level New York Center
Thu 11:08:57 PM 41.0800 -77.2481 277° West 391 450 32,000  Level New York Center
Thu 11:09:57 PM 41.0953 -77.3900 278° West 391 450 32,000  Level New York Center
Thu 11:11:29 PM 41.1144 -77.6203 276° West 392 451 32,000  Level Cleveland Center
Thu 11:12:30 PM 41.1272 -77.7631 277° West 393 452 32,000  Level Cleveland Center
Thu 11:13:31 PM 41.1400 -77.9047 277° West 390 449 32,000  Level Cleveland Center
Thu 11:14:32 PM 41.1522 -78.0489 276° West 393 452 32,000  Level Cleveland Center
Thu 11:15:33 PM 41.1636 -78.1919 276° West 394 453 32,000  Level Cleveland Center
Thu 11:16:34 PM 41.1747 -78.3375 276° West 393 452 32,000  Level Cleveland Center
Thu 11:17:35 PM 41.1858 -78.4800 276° West 392 451 32,000  Level Cleveland Center
Thu 11:18:36 PM 41.1975 -78.6228 276° West 390 449 32,000  Level Cleveland Center
Thu 11:19:37 PM 41.2092 -78.7672 276° West 395 455 32,000  Level Cleveland Center
Thu 11:20:38 PM 41.2208 -78.9111 276° West 395 455 32,000  Level Cleveland Center
Thu 11:21:39 PM 41.2319 -79.0683 275° West 390 449 32,000  Level Cleveland Center
Thu 11:22:40 PM 41.2428 -79.2097 276° West 388 447 32,000  Level Cleveland Center
Thu 11:23:41 PM 41.2536 -79.3628 275° West 387 445 32,000  Level Cleveland Center
Thu 11:24:42 PM 41.2633 -79.4944 276° West 359 413 32,000  Level Cleveland Center
Thu 11:25:43 PM 41.2725 -79.6192 276° West 343 395 32,000  Level Cleveland Center
Thu 11:26:44 PM 41.2811 -79.7606 275° West 346 398 32,000  Level Cleveland Center
Thu 11:27:45 PM 41.2908 -79.8914 276° West 355 409 32,000  Level Cleveland Center
Thu 11:28:46 PM 41.2983 -80.0125 275° West 369 425 32,000  Level Cleveland Center
Thu 11:29:46 PM 41.3067 -80.1494 275° West 374 430 32,000  Level Cleveland Center
Thu 11:30:47 PM 41.3158 -80.2892 275° West 382 440 32,000  Level Cleveland Center
Thu 11:31:48 PM 41.3253 -80.4472 275° West 379 436 32,000  Level Cleveland Center
Thu 11:32:49 PM 41.3344 -80.5875 275° West 377 434 32,000  Level Cleveland Center
Thu 11:33:50 PM 41.3431 -80.7272 275° West 375 432 32,000  Level Cleveland Center
Thu 11:34:51 PM 41.3511 -80.8694 274° West 381 438 32,000  Level Cleveland Center
Thu 11:35:52 PM 41.3597 -81.0100 275° West 377 434 32,000  Level Cleveland Center
Thu 11:36:52 PM 41.3675 -81.1503 274° West 377 434 32,000  Level Cleveland Center
Thu 11:37:53 PM 41.3750 -81.2886 274° West 374 430 32,000  Level Cleveland Center
Thu 11:38:54 PM 41.3819 -81.4269 274° West 379 436 32,000  Level Cleveland Center
Thu 11:39:55 PM 41.3892 -81.5661 274° West 378 435 32,000  Level Cleveland Center
Thu 11:40:56 PM 41.3964 -81.7039 274° West 373 429 32,000  Level Cleveland Center
Thu 11:41:57 PM 41.4036 -81.8406 274° West 374 430 32,000  Level Cleveland Center
Thu 11:42:57 PM 41.4117 -81.9803 274° West 377 434 32,000  Level Cleveland Center
Thu 11:43:58 PM 41.4194 -82.1433 274° West 376 433 32,000  Level Cleveland Center
Thu 11:44:59 PM 41.4264 -82.2828 274° West 375 432 32,000  Level Cleveland Center
Thu 11:46:00 PM 41.4325 -82.4222 273° West 375 432 32,000  Level Cleveland Center
Thu 11:47:00 PM 41.4386 -82.5611 273° West 373 429 32,000  Level Cleveland Center
Thu 11:48:01 PM 41.4447 -82.7003 273° West 373 429 32,000  Level Cleveland Center
Thu 11:49:02 PM 41.4508 -82.8397 273° West 374 430 32,000  Level Cleveland Center
Thu 11:50:03 PM 41.4572 -82.9783 274° West 373 429 32,000  Level Cleveland Center
Thu 11:51:03 PM 41.4619 -83.1178 273° West 374 430 32,000  Level Cleveland Center
Thu 11:52:04 PM 41.4681 -83.2581 273° West 376 433 32,000  Level Cleveland Center
Thu 11:53:05 PM 41.4733 -83.3992 273° West 381 438 32,000  Level Cleveland Center
Thu 11:54:06 PM 41.4786 -83.5397 273° West 380 437 32,000  Level Cleveland Center
Thu 11:55:06 PM 41.4828 -83.6836 272° West 386 444 32,000  Level Cleveland Center
Thu 11:56:07 PM 41.4875 -83.8283 273° West 390 449 32,000  Level Cleveland Center
Thu 11:57:08 PM 41.4925 -83.9733 273° West 390 449 32,000  Level Cleveland Center
Thu 11:58:08 PM 41.4967 -84.1192 272° West 393 452 32,000  Level Cleveland Center
Thu 11:58:42 PM 41.4997 -84.2072 273° West 394 453 32,000  Level Chicago Center
Thu 11:59:43 PM 41.5036 -84.3531 272° West 394 453 32,000  Level Chicago Center
Fri 12:00:44 AM 41.5075 -84.4994 272° West 396 456 32,000  Level Chicago Center
Fri 12:01:45 AM 41.5106 -84.6472 272° West 399 459 32,000  Level Chicago Center
Fri 12:02:45 AM 41.5147 -84.7944 272° West 397 457 32,000  Level Chicago Center
Fri 12:03:46 AM 41.5183 -84.9425 272° West 399 459 32,000  Level Chicago Center
Fri 12:04:47 AM 41.5217 -85.0897 272° West 399 459 32,000  Level Chicago Center
Fri 12:05:47 AM 41.5244 -85.2392 271° West 400 460 32,000  Level Chicago Center
Fri 12:06:48 AM 41.5278 -85.3917 272° West 402 463 32,000  Level Chicago Center
Fri 12:07:49 AM 41.5314 -85.5436 272° West 400 460 32,000  Level Chicago Center
Fri 12:08:49 AM 41.5333 -85.6956 271° West 403 464 32,000  Level Chicago Center
Fri 12:09:50 AM 41.5358 -85.8456 271° West 404 465 32,000  Level Chicago Center
Fri 12:10:51 AM 41.5383 -85.9964 271° West 407 468 32,000  Level Chicago Center
Fri 12:11:51 AM 41.5408 -86.1469 271° West 406 467 32,000  Level Chicago Center
Fri 12:12:52 AM 41.5556 -86.2992 277° West 414 476 32,000  Level Chicago Center
Fri 12:13:53 AM 41.5950 -86.4450 290° West 418 481 32,000  Level Chicago Center
Fri 12:14:53 AM 41.6364 -86.5903 291° West 419 482 32,000  Level Chicago Center
Fri 12:15:54 AM 41.6775 -86.7311 291° West 420 483 32,000  Level Chicago Center
Fri 12:16:54 AM 41.7169 -86.8767 290° West 420 483 32,000  Level Chicago Center
Fri 12:17:55 AM 41.7656 -87.0542 290° West 424 488 32,000  Level Chicago Center
Fri 12:18:56 AM 41.8056 -87.2022 290° West 426 490 32,000 -99 Level Chicago Center
Fri 12:19:56 AM 41.8469 -87.3528 290° West 431 496 31,800 -1,041 Descending Chicago Center
Fri 12:20:57 AM 41.8861 -87.4983 290° West 423 487 29,900 -2,281 Descending Chicago Center
Fri 12:21:57 AM 41.9244 -87.6408 290° West 413 475 27,200 -3,124 Descending Chicago Center
Fri 12:22:58 AM 41.9633 -87.7858 290° West 417 480 23,600 -3,322 Descending Chicago Center
Fri 12:23:58 AM 42.0006 -87.9247 290° West 404 465 20,500 -1,835 Descending Chicago Center
Fri 12:24:59 AM 42.0350 -88.0561 289° West 382 440 19,900 -1,736 Descending Chicago Center
Fri 12:25:59 AM 42.0678 -88.1844 289° West 370 426 17,000 -2,876 Descending Chicago Center
Fri 12:27:00 AM 42.0992 -88.3081 289° West 357 411 14,100 -3,174 Descending Chicago Center
Fri 12:28:00 AM 42.1294 -88.4225 290° West 333 383 10,600 -1,983 Descending Chicago Center
Fri 12:29:01 AM 42.1522 -88.5250 287° West 296 341 10,100 -298 Descending Chicago Center
Fri 12:30:01 AM 42.1483 -88.6169 267° West 255 293 10,000 -645 Descending Chicago Center
Fri 12:31:02 AM 42.1408 -88.7267 265° West 248 285 8,800 -1,636 Descending Chicago Center
Fri 12:32:02 AM 42.1347 -88.8167 265° West 244 281 6,700 -1,983 Descending Chicago Center
Fri 12:33:03 AM 42.1183 -88.8964 255° West 244 281 4,800 -1,785 Descending Chicago Center
Fri 12:34:03 AM 42.1006 -88.9794 254° West 237 273 3,100 -992 Descending Chicago Center
Fri 12:35:04 AM 42.0875 -89.0539 257° West 220 253 2,800 -347 Descending Chicago Center
Fri 12:36:04 AM 42.1156 -89.1019 308° West 192 221 2,400 -400 Descending Chicago Center

Login

Don't have an account? Register now (free) for customized features, flight alerts, and more!